createdAt,value
2023-04-16T00:01:02.869Z,82.41
2023-04-16T00:03:29.419Z,82.55
2023-04-16T00:05:56.440Z,83.02
2023-04-16T00:08:24.432Z,82.37
2023-04-16T00:10:52.435Z,82.33
2023-04-16T00:13:18.837Z,83.30
2023-04-16T00:15:45.167Z,82.05
2023-04-16T00:18:11.529Z,81.54
2023-04-16T00:20:37.904Z,82.30
2023-04-16T00:23:04.208Z,82.02
2023-04-16T00:25:30.512Z,82.10
2023-04-16T00:27:56.979Z,82.31
2023-04-16T00:30:23.329Z,82.52
2023-04-16T00:32:49.667Z,82.63
2023-04-16T00:35:16.329Z,82.19
2023-04-16T00:37:42.663Z,82.67
2023-04-16T00:40:09.340Z,81.78
2023-04-16T00:42:36.986Z,81.96
2023-04-16T00:45:04.792Z,82.86
2023-04-16T00:47:31.693Z,83.25
2023-04-16T00:49:58.196Z,82.75
2023-04-16T00:52:25.955Z,82.59
2023-04-16T00:54:53.740Z,82.69
2023-04-16T00:57:21.026Z,82.57
2023-04-16T00:59:47.478Z,82.83
2023-04-16T01:02:14.311Z,83.47
2023-04-16T01:04:40.904Z,83.38
2023-04-16T01:07:07.212Z,83.52
2023-04-16T01:09:33.592Z,83.06
2023-04-16T01:11:59.979Z,83.67
2023-04-16T01:14:26.398Z,82.14
2023-04-16T01:16:52.834Z,81.52
2023-04-16T01:19:19.225Z,82.17
2023-04-16T01:21:45.693Z,82.32
2023-04-16T01:24:11.980Z,82.53
2023-04-16T01:26:38.275Z,82.66
2023-04-16T01:29:04.610Z,82.61
2023-04-16T01:31:31.055Z,81.20
2023-04-16T01:33:57.384Z,81.86
2023-04-16T01:36:23.671Z,82.14
2023-04-16T01:38:50.043Z,82.42
2023-04-16T01:41:16.513Z,82.30
2023-04-16T01:43:42.821Z,82.19
2023-04-16T01:46:17.983Z,82.05
2023-04-16T01:48:44.515Z,82.22
2023-04-16T01:51:10.884Z,82.21
2023-04-16T01:53:37.344Z,82.81
2023-04-16T01:56:03.951Z,83.36
2023-04-16T01:58:31.090Z,82.81
2023-04-16T02:00:57.705Z,82.87
2023-04-16T02:03:24.906Z,82.46
2023-04-16T02:05:51.598Z,82.51
2023-04-16T02:08:18.491Z,81.84
2023-04-16T02:10:48.085Z,82.17
2023-04-16T02:13:15.628Z,82.46
2023-04-16T02:15:49.180Z,82.75
2023-04-16T02:18:16.222Z,81.03
2023-04-16T02:20:43.681Z,82.35
2023-04-16T02:23:10.683Z,82.47
2023-04-16T02:25:41.217Z,81.86
2023-04-16T02:28:12.165Z,82.93
2023-04-16T02:30:39.769Z,83.16
2023-04-16T02:33:07.823Z,81.94
2023-04-16T02:35:34.695Z,82.16
2023-04-16T02:38:01.345Z,81.90
2023-04-16T02:40:28.166Z,81.95
2023-04-16T02:42:54.744Z,82.49
2023-04-16T02:45:21.440Z,82.14
2023-04-16T02:47:48.859Z,81.50
2023-04-16T02:50:15.606Z,82.12
2023-04-16T02:52:42.055Z,82.68
2023-04-16T02:55:09.122Z,81.95
2023-04-16T02:57:35.489Z,81.61
2023-04-16T03:00:02.233Z,82.04
2023-04-16T03:02:28.558Z,81.50
2023-04-16T03:04:54.922Z,82.41
2023-04-16T03:07:21.531Z,82.63
2023-04-16T03:09:47.809Z,81.77
2023-04-16T03:12:14.114Z,81.26
2023-04-16T03:14:40.605Z,81.29
2023-04-16T03:17:07.041Z,81.06
2023-04-16T03:19:33.423Z,81.09
2023-04-16T03:21:59.739Z,80.79
2023-04-16T03:24:26.153Z,81.41
2023-04-16T03:26:52.447Z,82.20
2023-04-16T03:29:18.770Z,81.54
2023-04-16T03:31:45.035Z,82.73
2023-04-16T03:34:11.313Z,81.62
2023-04-16T03:36:37.607Z,81.95
2023-04-16T03:39:03.994Z,82.83
2023-04-16T03:41:30.335Z,82.59
2023-04-16T03:43:56.640Z,81.94
2023-04-16T03:46:22.981Z,81.70
2023-04-16T03:48:49.264Z,81.56
2023-04-16T03:51:15.927Z,81.42
2023-04-16T03:53:42.247Z,80.68
2023-04-16T03:56:08.568Z,81.68
2023-04-16T03:58:34.912Z,81.08
2023-04-16T04:01:01.221Z,82.12
2023-04-16T04:03:27.852Z,81.52
2023-04-16T04:05:54.281Z,82.03
2023-04-16T04:08:20.772Z,81.88
2023-04-16T04:10:47.090Z,81.62
2023-04-16T04:13:13.430Z,82.66
2023-04-16T04:15:39.824Z,81.64
2023-04-16T04:18:06.172Z,81.71
2023-04-16T04:20:32.467Z,81.60
2023-04-16T04:22:58.998Z,81.47
2023-04-16T04:25:25.493Z,81.21
2023-04-16T04:27:51.775Z,80.87
2023-04-16T04:30:18.054Z,81.31
2023-04-16T04:32:44.418Z,81.09
2023-04-16T04:35:10.951Z,82.05
2023-04-16T04:37:37.331Z,82.23
2023-04-16T04:40:03.898Z,80.48
2023-04-16T04:42:30.239Z,80.59
2023-04-16T04:44:56.561Z,80.48
2023-04-16T04:47:22.894Z,81.15
2023-04-16T04:49:49.178Z,80.50
2023-04-16T04:52:15.680Z,80.67
2023-04-16T04:54:42.161Z,80.38
2023-04-16T04:57:08.710Z,80.55
2023-04-16T04:59:35.034Z,80.85
2023-04-16T05:02:03.210Z,81.04
2023-04-16T05:04:30.641Z,80.16
2023-04-16T05:06:57.018Z,81.25
2023-04-16T05:09:23.301Z,80.90
2023-04-16T05:11:49.713Z,81.07
2023-04-16T05:14:16.259Z,81.29
2023-04-16T05:16:42.574Z,81.89
2023-04-16T05:19:09.085Z,80.70
2023-04-16T05:21:35.706Z,81.26
2023-04-16T05:24:03.169Z,80.70
2023-04-16T05:26:29.490Z,79.59
2023-04-16T05:28:55.856Z,80.50
2023-04-16T05:31:22.327Z,80.02
2023-04-16T05:33:48.714Z,79.70
2023-04-16T05:36:15.005Z,79.08
2023-04-16T05:38:41.303Z,80.17
2023-04-16T05:41:07.582Z,80.24
2023-04-16T05:43:33.867Z,80.05
2023-04-16T05:46:00.333Z,80.49
2023-04-16T05:48:26.714Z,79.23
2023-04-16T05:50:53.769Z,79.26
2023-04-16T05:53:20.267Z,79.66
2023-04-16T05:55:47.210Z,79.52
2023-04-16T05:58:13.497Z,79.35
2023-04-16T06:00:40.429Z,80.12
2023-04-16T06:03:06.925Z,79.56
2023-04-16T06:05:33.472Z,79.98
2023-04-16T06:07:59.842Z,80.25
2023-04-16T06:10:26.297Z,79.78
2023-04-16T06:12:52.587Z,79.69
2023-04-16T06:15:18.969Z,78.89
2023-04-16T06:17:45.350Z,79.04
2023-04-16T06:20:12.504Z,79.06
2023-04-16T06:22:38.861Z,78.60
2023-04-16T06:25:05.674Z,79.13
2023-04-16T06:27:31.941Z,78.68
2023-04-16T06:29:58.527Z,79.64
2023-04-16T06:32:25.381Z,79.09
2023-04-16T06:34:51.611Z,78.71
2023-04-16T06:37:19.174Z,79.31
2023-04-16T06:39:45.641Z,78.70
2023-04-16T06:42:12.011Z,79.17
2023-04-16T06:44:38.361Z,79.42
2023-04-16T06:47:04.797Z,78.86
2023-04-16T06:49:31.233Z,78.13
2023-04-16T06:51:57.730Z,78.17
2023-04-16T06:54:24.023Z,78.28
2023-04-16T06:56:50.421Z,78.40
2023-04-16T06:59:16.932Z,78.78
2023-04-16T07:01:43.412Z,78.46
2023-04-16T07:04:09.837Z,77.40
2023-04-16T07:06:36.205Z,77.91
2023-04-16T07:09:02.510Z,78.15
2023-04-16T07:11:28.998Z,79.03
2023-04-16T07:13:55.370Z,78.68
2023-04-16T07:16:21.669Z,80.13
2023-04-16T07:18:47.990Z,80.41
2023-04-16T07:21:14.351Z,80.57
2023-04-16T07:23:41.646Z,81.64
2023-04-16T07:26:07.961Z,81.87
2023-04-16T07:28:34.374Z,81.17
2023-04-16T07:31:00.741Z,82.51
2023-04-16T07:33:27.248Z,81.55
2023-04-16T07:35:53.542Z,83.03
2023-04-16T07:38:19.847Z,83.37
2023-04-16T07:40:46.265Z,83.30
2023-04-16T07:43:13.877Z,83.96
2023-04-16T07:45:41.343Z,84.45
2023-04-16T07:48:07.861Z,84.55
2023-04-16T07:50:34.166Z,85.48
2023-04-16T07:53:00.900Z,85.26
2023-04-16T07:55:27.180Z,84.70
2023-04-16T07:57:53.807Z,84.50
2023-04-16T08:00:20.345Z,84.35
2023-04-16T08:02:46.899Z,84.17
2023-04-16T08:05:13.482Z,84.66
2023-04-16T08:07:39.875Z,85.49
2023-04-16T08:10:06.877Z,85.70
2023-04-16T08:12:33.531Z,85.91
2023-04-16T08:14:59.884Z,85.66
2023-04-16T08:17:26.284Z,85.51
2023-04-16T08:19:52.787Z,85.21
2023-04-16T08:22:19.373Z,84.21
2023-04-16T08:24:45.942Z,84.96
2023-04-16T08:27:19.156Z,85.59
2023-04-16T08:29:47.759Z,85.92
2023-04-16T08:32:14.087Z,86.35
2023-04-16T08:34:41.860Z,85.21
2023-04-16T08:37:08.198Z,85.95
2023-04-16T08:39:35.140Z,86.23
2023-04-16T08:42:04.857Z,86.70
2023-04-16T08:44:37.361Z,86.64
2023-04-16T08:47:08.858Z,86.37
2023-04-16T08:49:43.072Z,86.91
2023-04-16T08:52:16.442Z,86.08
2023-04-16T08:55:05.069Z,85.96
2023-04-16T08:57:39.848Z,86.50
2023-04-16T09:00:08.959Z,86.21
2023-04-16T09:02:36.014Z,86.23
2023-04-16T09:05:05.006Z,86.79
2023-04-16T09:07:32.880Z,86.26
2023-04-16T09:10:00.748Z,86.34
2023-04-16T09:12:27.695Z,86.33
2023-04-16T09:14:54.729Z,85.94
2023-04-16T09:17:21.088Z,85.78
2023-04-16T09:19:47.478Z,85.75
2023-04-16T09:22:13.812Z,86.05
2023-04-16T09:24:40.384Z,85.09
2023-04-16T09:27:07.845Z,85.88
2023-04-16T09:29:40.478Z,85.63
2023-04-16T09:32:08.781Z,85.40
2023-04-16T09:34:50.963Z,84.85
2023-04-16T09:37:18.093Z,84.88
2023-04-16T09:39:45.436Z,84.48
2023-04-16T09:42:12.159Z,84.05
2023-04-16T09:44:39.197Z,84.58
2023-04-16T09:47:09.716Z,84.38
2023-04-16T09:49:42.111Z,84.66
2023-04-16T09:52:17.980Z,84.68
2023-04-16T09:54:52.402Z,85.01
2023-04-16T09:57:23.531Z,83.88
2023-04-16T10:00:02.595Z,83.86
2023-04-16T10:02:29.343Z,82.96
2023-04-16T10:04:57.434Z,83.21
2023-04-16T10:07:28.327Z,82.88
2023-04-16T10:09:55.796Z,82.62
2023-04-16T10:12:22.109Z,82.60
2023-04-16T10:14:50.095Z,82.01
2023-04-16T10:17:16.999Z,83.31
2023-04-16T10:19:43.844Z,83.19
2023-04-16T10:22:10.193Z,82.44
2023-04-16T10:24:36.541Z,82.74
2023-04-16T10:27:02.995Z,82.26
2023-04-16T10:29:30.842Z,82.15
2023-04-16T10:31:58.323Z,82.74
2023-04-16T10:34:25.799Z,83.40
2023-04-16T10:36:53.240Z,82.41
2023-04-16T10:39:24.097Z,82.19
2023-04-16T10:41:51.657Z,81.70
2023-04-16T10:44:19.413Z,83.12
2023-04-16T10:46:52.160Z,82.27
2023-04-16T10:49:22.948Z,81.20
2023-04-16T10:51:59.575Z,81.87
2023-04-16T10:54:27.808Z,82.90
2023-04-16T10:56:56.774Z,82.43
2023-04-16T10:59:24.294Z,81.92
2023-04-16T11:01:55.870Z,81.55
2023-04-16T11:04:25.543Z,80.73
2023-04-16T11:07:07.079Z,80.63
2023-04-16T11:10:02.071Z,81.31
2023-04-16T11:12:37.397Z,82.00
2023-04-16T11:15:11.354Z,81.38
2023-04-16T11:17:43.383Z,81.88
2023-04-16T11:20:19.988Z,82.79
2023-04-16T11:22:48.390Z,81.54
2023-04-16T11:25:29.710Z,81.87
2023-04-16T11:27:57.875Z,81.42
2023-04-16T11:30:33.739Z,82.36
2023-04-16T11:33:04.291Z,81.96
2023-04-16T11:35:31.034Z,82.38
2023-04-16T11:37:57.894Z,81.96
2023-04-16T11:40:25.025Z,81.30
2023-04-16T11:42:51.345Z,82.80
2023-04-16T11:45:19.383Z,82.94
2023-04-16T11:47:50.181Z,81.75
2023-04-16T11:50:27.610Z,82.89
2023-04-16T11:52:56.113Z,82.25
2023-04-16T11:55:23.869Z,82.17
2023-04-16T11:57:51.321Z,82.61
2023-04-16T12:00:19.271Z,80.91
2023-04-16T12:02:52.427Z,81.36
2023-04-16T12:05:35.585Z,82.29
2023-04-16T12:08:04.896Z,83.03
2023-04-16T12:10:35.095Z,83.11
2023-04-16T12:13:15.777Z,82.43
2023-04-16T12:15:59.364Z,83.56
2023-04-16T12:18:29.302Z,83.38
2023-04-16T12:20:55.883Z,82.89
2023-04-16T12:23:26.355Z,83.32
2023-04-16T12:25:53.116Z,83.83
2023-04-16T12:28:33.242Z,82.68
2023-04-16T12:31:00.438Z,83.52
2023-04-16T12:33:26.927Z,83.77
2023-04-16T12:35:55.156Z,83.47
2023-04-16T12:38:24.072Z,83.00
2023-04-16T12:40:50.991Z,83.37
2023-04-16T12:43:17.713Z,83.99
2023-04-16T12:45:45.712Z,82.94
2023-04-16T12:48:12.033Z,83.66
2023-04-16T12:50:39.684Z,83.68
2023-04-16T12:53:06.209Z,83.20
2023-04-16T12:55:32.591Z,82.79
2023-04-16T12:58:00.793Z,82.75
2023-04-16T13:00:27.093Z,82.88
2023-04-16T13:02:56.022Z,83.62
2023-04-16T13:05:22.415Z,83.09
2023-04-16T13:07:48.745Z,83.75
2023-04-16T13:10:15.270Z,83.46
2023-04-16T13:12:41.593Z,83.41
2023-04-16T13:15:08.626Z,83.75
2023-04-16T13:17:34.964Z,84.38
2023-04-16T13:20:06.443Z,83.93
2023-04-16T13:22:33.457Z,83.46
2023-04-16T13:24:59.799Z,84.64
2023-04-16T13:27:26.241Z,83.05
2023-04-16T13:29:55.391Z,83.42
2023-04-16T13:32:21.762Z,83.60
2023-04-16T13:34:49.316Z,83.54
2023-04-16T13:37:15.719Z,83.07
2023-04-16T13:39:41.993Z,83.21
2023-04-16T13:42:08.313Z,83.01
2023-04-16T13:44:37.434Z,83.90
2023-04-16T13:47:03.921Z,82.81
2023-04-16T13:51:57.263Z,81.81
2023-04-16T13:54:23.587Z,81.55
2023-04-16T13:56:50.635Z,82.20
2023-04-16T13:59:17.152Z,81.85
2023-04-16T14:01:43.488Z,80.35
2023-04-16T14:04:09.840Z,80.76
2023-04-16T14:06:36.278Z,80.33
2023-04-16T14:09:02.685Z,79.54
2023-04-16T14:11:29.097Z,79.49
2023-04-16T14:13:58.412Z,79.39
2023-04-16T14:16:24.834Z,79.56
2023-04-16T14:18:51.886Z,78.82
2023-04-16T14:21:18.560Z,79.00
2023-04-16T14:23:44.869Z,76.78
2023-04-16T14:26:11.224Z,77.47
2023-04-16T14:28:38.083Z,77.80
2023-04-16T14:31:04.575Z,78.43
2023-04-16T14:33:31.047Z,78.53
2023-04-16T14:35:57.367Z,77.81
2023-04-16T14:38:23.866Z,77.67
2023-04-16T14:40:50.392Z,78.33
2023-04-16T14:43:16.748Z,78.31
2023-04-16T14:45:43.157Z,78.19
2023-04-16T14:48:09.532Z,76.90
2023-04-16T14:50:37.855Z,76.90
2023-04-16T14:53:07.301Z,75.98
2023-04-16T14:55:33.691Z,77.64
2023-04-16T14:58:00.067Z,77.24
2023-04-16T15:00:27.266Z,77.13
2023-04-16T15:02:54.950Z,76.44
2023-04-16T15:05:22.168Z,75.83
2023-04-16T15:07:51.605Z,76.89
2023-04-16T15:10:19.578Z,76.92
2023-04-16T15:12:45.885Z,76.23
2023-04-16T15:15:12.173Z,76.10
2023-04-16T15:17:39.090Z,76.98
2023-04-16T15:20:08.090Z,77.45
2023-04-16T15:22:34.558Z,78.47
2023-04-16T15:25:00.899Z,77.36
2023-04-16T15:27:27.274Z,77.38
2023-04-16T15:29:53.974Z,77.36
2023-04-16T15:32:20.450Z,77.75
2023-04-16T15:34:46.847Z,78.08
2023-04-16T15:37:13.211Z,77.66
2023-04-16T15:39:39.526Z,78.31
2023-04-16T15:42:07.455Z,78.66
2023-04-16T15:44:36.796Z,78.87
2023-04-16T15:47:03.237Z,79.36
2023-04-16T15:49:29.564Z,78.89
2023-04-16T15:51:56.413Z,78.97
2023-04-16T15:54:23.556Z,79.03
2023-04-16T15:56:52.992Z,78.42
2023-04-16T15:59:21.330Z,78.86
2023-04-16T16:01:47.654Z,78.56
2023-04-16T16:04:14.099Z,79.50
2023-04-16T16:06:41.745Z,79.32
2023-04-16T16:09:08.278Z,79.35
2023-04-16T16:11:37.724Z,79.40
2023-04-16T16:14:05.214Z,79.88
2023-04-16T16:16:34.892Z,79.03
2023-04-16T16:19:01.500Z,79.89
2023-04-16T16:21:30.093Z,79.70
2023-04-16T16:23:56.930Z,80.02
2023-04-16T16:26:23.348Z,80.78
2023-04-16T16:28:49.682Z,80.41
2023-04-16T16:31:16.152Z,80.02
2023-04-16T16:33:42.486Z,80.36
2023-04-16T16:36:12.257Z,81.27
2023-04-16T16:38:43.033Z,80.75
2023-04-16T16:41:09.389Z,81.12
2023-04-16T16:43:36.704Z,80.44
2023-04-16T16:46:03.363Z,81.28
2023-04-16T16:48:29.677Z,81.48
2023-04-16T16:50:55.998Z,80.81
2023-04-16T16:53:22.341Z,80.74
2023-04-16T16:55:50.989Z,81.15
2023-04-16T16:58:17.320Z,80.83
2023-04-16T17:00:43.752Z,80.23
2023-04-16T17:03:10.344Z,81.49
2023-04-16T17:05:36.719Z,81.30
2023-04-16T17:08:03.107Z,82.07
2023-04-16T17:10:29.644Z,81.93
2023-04-16T17:12:56.017Z,82.04
2023-04-16T17:15:22.437Z,82.44
2023-04-16T17:17:48.946Z,82.47
2023-04-16T17:20:15.557Z,82.71
2023-04-16T17:22:41.942Z,82.78
2023-04-16T17:25:08.674Z,82.79
2023-04-16T17:27:35.095Z,82.16
2023-04-16T17:30:02.915Z,82.02
2023-04-16T17:32:29.702Z,82.80
2023-04-16T17:34:56.443Z,83.24
2023-04-16T17:37:22.911Z,81.94
2023-04-16T17:39:49.637Z,83.39
2023-04-16T17:42:16.048Z,82.85
2023-04-16T17:44:42.395Z,81.96
2023-04-16T17:47:08.784Z,82.81
2023-04-16T17:49:35.092Z,82.57
2023-04-16T17:52:01.500Z,81.86
2023-04-16T17:54:27.982Z,82.67
2023-04-16T17:56:54.320Z,81.92
2023-04-16T17:59:20.810Z,82.88
2023-04-16T18:01:49.404Z,83.20
2023-04-16T18:04:16.276Z,82.75
2023-04-16T18:06:43.080Z,81.79
2023-04-16T18:09:09.374Z,82.07
2023-04-16T18:11:35.845Z,82.85
2023-04-16T18:14:02.194Z,82.34
2023-04-16T18:16:28.542Z,82.15
2023-04-16T18:18:54.932Z,82.18
2023-04-16T18:21:21.231Z,83.03
2023-04-16T18:23:48.426Z,82.02
2023-04-16T18:26:18.370Z,82.67
2023-04-16T18:28:47.128Z,82.90
2023-04-16T18:31:13.456Z,82.35
2023-04-16T18:33:55.549Z,82.54
2023-04-16T18:36:24.085Z,82.80
2023-04-16T18:39:01.014Z,82.83
2023-04-16T18:41:29.704Z,82.55
2023-04-16T18:43:56.128Z,82.77
2023-04-16T18:46:22.518Z,82.11
2023-04-16T18:48:48.872Z,83.21
2023-04-16T18:51:16.600Z,82.84
2023-04-16T18:53:44.391Z,83.25
2023-04-16T18:56:11.051Z,82.60
2023-04-16T18:58:37.871Z,82.36
2023-04-16T19:01:04.821Z,82.17
2023-04-16T19:03:32.113Z,82.32
2023-04-16T19:05:58.723Z,82.24
2023-04-16T19:08:25.237Z,82.78
2023-04-16T19:10:51.613Z,82.75
2023-04-16T19:13:17.981Z,82.39
2023-04-16T19:15:44.278Z,82.78
2023-04-16T19:18:10.747Z,82.44
2023-04-16T19:20:37.288Z,82.97
2023-04-16T19:23:08.853Z,82.04
2023-04-16T19:25:36.459Z,82.61
2023-04-16T19:28:03.664Z,82.70
2023-04-16T19:30:30.805Z,81.94
2023-04-16T19:32:57.480Z,81.61
2023-04-16T19:35:23.902Z,82.16
2023-04-16T19:37:50.469Z,81.70
2023-04-16T19:40:16.749Z,82.16
2023-04-16T19:42:45.146Z,81.72
2023-04-16T19:45:11.481Z,82.85
2023-04-16T19:47:37.784Z,82.60
2023-04-16T19:50:04.456Z,82.43
2023-04-16T19:52:30.738Z,82.95
2023-04-16T19:54:57.042Z,81.77
2023-04-16T19:57:23.469Z,81.23
2023-04-16T19:59:49.805Z,81.65
2023-04-16T20:02:16.161Z,82.53
2023-04-16T20:04:42.486Z,82.65
2023-04-16T20:07:08.767Z,82.74
2023-04-16T20:09:35.290Z,82.40
2023-04-16T20:12:01.842Z,81.99
2023-04-16T20:14:28.162Z,82.04
2023-04-16T20:16:54.560Z,81.76
2023-04-16T20:19:22.019Z,81.85
2023-04-16T20:21:48.341Z,82.81
2023-04-16T20:24:15.353Z,82.63
2023-04-16T20:26:41.837Z,82.15
2023-04-16T20:29:09.928Z,81.97
2023-04-16T20:31:36.538Z,82.59
2023-04-16T20:34:03.703Z,83.11
2023-04-16T20:36:30.374Z,82.19
2023-04-16T20:38:56.696Z,82.49
2023-04-16T20:41:25.070Z,83.05
2023-04-16T20:43:52.662Z,82.75
2023-04-16T20:46:19.153Z,82.99
2023-04-16T20:48:45.560Z,83.51
2023-04-16T20:51:12.178Z,83.08
2023-04-16T20:53:38.466Z,82.91
2023-04-16T20:56:05.279Z,83.23
2023-04-16T20:58:31.661Z,82.80
2023-04-16T21:00:57.972Z,83.86
2023-04-16T21:03:24.737Z,84.39
2023-04-16T21:05:55.550Z,83.86
2023-04-16T21:08:23.115Z,83.97
2023-04-16T21:10:50.453Z,83.89
2023-04-16T21:13:17.128Z,83.68
2023-04-16T21:15:45.178Z,83.66
2023-04-16T21:18:12.445Z,83.83
2023-04-16T21:20:39.393Z,83.64
2023-04-16T21:23:06.260Z,83.78
2023-04-16T21:25:33.404Z,83.48
2023-04-16T21:27:59.774Z,84.68
2023-04-16T21:30:26.096Z,84.50
2023-04-16T21:32:52.525Z,84.35
2023-04-16T21:35:18.871Z,84.35
2023-04-16T21:37:45.201Z,84.41
2023-04-16T21:40:11.690Z,84.84
2023-04-16T21:42:39.769Z,85.19
2023-04-16T21:45:08.418Z,84.91
2023-04-16T21:47:34.903Z,85.60
2023-04-16T21:50:01.373Z,85.19
2023-04-16T21:52:27.835Z,85.62
2023-04-16T21:54:54.385Z,85.30
2023-04-16T21:57:20.696Z,85.19
2023-04-16T21:59:46.969Z,85.70
2023-04-16T22:02:13.300Z,85.40
2023-04-16T22:04:39.984Z,86.27
2023-04-16T22:07:09.028Z,86.07
2023-04-16T22:09:36.168Z,86.30
2023-04-16T22:12:02.537Z,85.48
2023-04-16T22:14:30.057Z,85.56
2023-04-16T22:16:56.464Z,85.42
2023-04-16T22:19:22.930Z,85.28
2023-04-16T22:21:49.257Z,85.62
2023-04-16T22:24:15.682Z,85.93
2023-04-16T22:26:42.083Z,85.83
2023-04-16T22:29:08.566Z,85.87
2023-04-16T22:31:35.056Z,85.11
2023-04-16T22:34:03.354Z,86.01
2023-04-16T22:36:31.148Z,85.86
2023-04-16T22:38:57.432Z,85.13
2023-04-16T22:41:23.753Z,85.93
2023-04-16T22:43:52.451Z,85.08
2023-04-16T22:46:22.298Z,86.19
2023-04-16T22:48:48.628Z,85.05
2023-04-16T22:51:14.919Z,85.60
2023-04-16T22:53:41.289Z,86.08
2023-04-16T22:56:07.632Z,85.33
2023-04-16T22:58:33.950Z,85.29
2023-04-16T23:01:01.465Z,85.69
2023-04-16T23:03:27.858Z,85.48
2023-04-16T23:05:54.273Z,85.58
2023-04-16T23:08:20.629Z,85.44
2023-04-16T23:10:46.902Z,86.18
2023-04-16T23:13:13.440Z,85.09
2023-04-16T23:15:39.773Z,84.96
2023-04-16T23:18:06.111Z,85.78
2023-04-16T23:20:32.452Z,85.70
2023-04-16T23:22:58.718Z,85.04
2023-04-16T23:25:25.520Z,85.82
2023-04-16T23:27:51.757Z,86.17
2023-04-16T23:30:18.189Z,85.64
2023-04-16T23:32:44.509Z,84.97
2023-04-16T23:35:10.824Z,84.82
2023-04-16T23:37:37.188Z,85.73
2023-04-16T23:40:04.471Z,85.70
2023-04-16T23:42:30.806Z,85.51
2023-04-16T23:44:57.231Z,86.06
2023-04-16T23:47:23.623Z,85.48
2023-04-16T23:49:49.951Z,86.03
2023-04-16T23:52:16.278Z,85.28
2023-04-16T23:54:42.568Z,85.04
2023-04-16T23:57:09.004Z,86.29
2023-04-16T23:59:35.282Z,85.57
